createdAt,value
2022-08-23T00:07:16.571Z,20.65
2022-08-23T00:10:43.024Z,20.60
2022-08-23T00:17:01.348Z,20.60
2022-08-23T00:19:28.678Z,20.65
2022-08-23T00:21:56.132Z,20.64
2022-08-23T00:24:25.356Z,20.62
2022-08-23T00:27:16.360Z,20.59
2022-08-23T00:29:47.383Z,20.57
2022-08-23T00:32:17.778Z,20.56
2022-08-23T00:34:44.659Z,20.53
2022-08-23T00:37:12.079Z,20.48
2022-08-23T00:39:40.510Z,20.47
2022-08-23T00:43:06.070Z,20.48
2022-08-23T00:46:26.895Z,20.44
2022-08-23T00:48:54.713Z,20.39
2022-08-23T00:51:43.085Z,20.39
2022-08-23T00:54:21.031Z,20.36
2022-08-23T00:56:49.384Z,20.32
2022-08-23T00:59:16.142Z,20.30
2022-08-23T01:01:44.358Z,20.29
2022-08-23T01:04:13.229Z,20.28
2022-08-23T01:06:48.643Z,20.26
2022-08-23T01:09:21.253Z,20.30
2022-08-23T01:12:11.163Z,20.29
2022-08-23T01:14:43.535Z,20.25
2022-08-23T01:17:13.834Z,20.23
2022-08-23T01:19:53.799Z,20.18
2022-08-23T01:22:49.359Z,20.14
2022-08-23T01:25:19.760Z,20.09
2022-08-23T01:27:46.764Z,20.04
2022-08-23T01:30:17.244Z,20.00
2022-08-23T01:32:50.223Z,19.97
2022-08-23T01:35:18.139Z,19.91
2022-08-23T01:37:45.614Z,19.88
2022-08-23T01:40:13.182Z,19.84
2022-08-23T01:42:41.790Z,19.80
2022-08-23T01:45:13.039Z,19.75
2022-08-23T01:47:41.265Z,19.65
2022-08-23T01:50:11.355Z,19.61
2022-08-23T01:52:38.997Z,19.55
2022-08-23T01:55:13.712Z,19.54
2022-08-23T01:57:42.846Z,19.51
2022-08-23T02:00:13.626Z,19.50
2022-08-23T02:02:41.468Z,19.47
2022-08-23T02:05:10.288Z,19.43
2022-08-23T02:07:36.965Z,19.41
2022-08-23T02:10:07.436Z,19.38
2022-08-23T02:12:34.853Z,19.34
2022-08-23T02:15:01.563Z,19.31
2022-08-23T02:17:28.362Z,19.32
2022-08-23T02:19:56.286Z,19.34
2022-08-23T02:22:23.233Z,19.39
2022-08-23T02:24:50.366Z,19.43
2022-08-23T02:27:17.733Z,19.45
2022-08-23T02:29:46.141Z,19.46
2022-08-23T02:32:16.886Z,19.46
2022-08-23T02:34:44.737Z,19.46
2022-08-23T02:37:26.681Z,19.46
2022-08-23T02:39:53.622Z,19.45
2022-08-23T02:42:20.325Z,19.42
2022-08-23T02:44:47.045Z,19.39
2022-08-23T02:47:14.456Z,19.33
2022-08-23T02:49:41.343Z,19.26
2022-08-23T02:52:08.061Z,19.20
2022-08-23T02:54:36.380Z,19.15
2022-08-23T02:57:03.594Z,19.11
2022-08-23T02:59:30.386Z,19.04
2022-08-23T03:01:57.298Z,18.99
2022-08-23T03:04:24.034Z,18.95
2022-08-23T03:06:51.020Z,18.91
2022-08-23T03:09:17.982Z,18.87
2022-08-23T03:11:49.748Z,18.82
2022-08-23T03:14:17.109Z,18.79
2022-08-23T03:16:44.490Z,18.74
2022-08-23T03:19:11.612Z,18.72
2022-08-23T03:21:38.733Z,18.67
2022-08-23T03:24:10.234Z,18.64
2022-08-23T03:26:38.055Z,18.60
2022-08-23T03:29:04.795Z,18.57
2022-08-23T03:31:31.817Z,18.54
2022-08-23T03:33:59.140Z,18.53
2022-08-23T03:36:27.987Z,18.50
2022-08-23T03:38:55.573Z,18.51
2022-08-23T03:41:22.386Z,18.51
2022-08-23T03:43:49.294Z,18.51
2022-08-23T03:46:24.124Z,18.53
2022-08-23T03:48:56.849Z,18.54
2022-08-23T03:51:24.688Z,18.53
2022-08-23T03:53:51.702Z,18.49
2022-08-23T03:56:27.047Z,18.43
2022-08-23T03:58:55.035Z,18.41
2022-08-23T04:01:26.533Z,18.38
2022-08-23T04:03:55.651Z,18.35
2022-08-23T04:06:22.331Z,18.35
2022-08-23T04:08:49.146Z,18.31
2022-08-23T04:11:16.450Z,18.29
2022-08-23T04:13:43.710Z,18.29
2022-08-23T04:16:11.207Z,18.31
2022-08-23T04:18:38.374Z,18.35
2022-08-23T04:21:10.536Z,18.45
2022-08-23T04:23:39.786Z,18.55
2022-08-23T04:26:09.765Z,18.60
2022-08-23T04:28:37.359Z,18.67
2022-08-23T04:31:05.087Z,18.72
2022-08-23T04:33:34.055Z,18.76
2022-08-23T04:36:01.886Z,18.78
2022-08-23T04:38:29.102Z,18.75
2022-08-23T04:41:15.016Z,18.70
2022-08-23T04:43:44.200Z,18.65
2022-08-23T04:46:15.526Z,18.60
2022-08-23T04:48:46.459Z,18.55
2022-08-23T04:51:13.290Z,18.53
2022-08-23T04:53:40.442Z,18.51
2022-08-23T04:56:09.144Z,18.51
2022-08-23T04:58:38.578Z,18.50
2022-08-23T05:01:11.059Z,18.48
2022-08-23T05:03:38.224Z,18.46
2022-08-23T05:06:05.276Z,18.43
2022-08-23T05:08:32.753Z,18.42
2022-08-23T05:11:04.649Z,18.41
2022-08-23T05:13:32.763Z,18.39
2022-08-23T05:16:02.138Z,18.38
2022-08-23T05:18:28.916Z,18.38
2022-08-23T05:20:56.556Z,18.38
2022-08-23T05:23:31.936Z,18.39
2022-08-23T05:26:00.049Z,18.38
2022-08-23T05:28:33.086Z,18.34
2022-08-23T05:31:11.805Z,18.32
2022-08-23T05:33:40.954Z,18.28
2022-08-23T05:36:08.533Z,18.26
2022-08-23T05:38:36.797Z,18.26
2022-08-23T05:41:05.402Z,18.31
2022-08-23T05:43:34.358Z,18.35
2022-08-23T05:46:14.870Z,18.38
2022-08-23T05:48:48.523Z,18.40
2022-08-23T05:51:22.368Z,18.41
2022-08-23T05:53:51.731Z,18.43
2022-08-23T05:56:25.935Z,18.45
2022-08-23T05:58:57.835Z,18.45
2022-08-23T06:01:28.073Z,18.48
2022-08-23T06:03:54.847Z,18.49
2022-08-23T06:06:22.317Z,18.51
2022-08-23T06:09:02.562Z,18.54
2022-08-23T06:11:30.269Z,18.55
2022-08-23T06:14:02.714Z,18.60
2022-08-23T06:16:34.135Z,18.64
2022-08-23T06:19:04.702Z,18.66
2022-08-23T06:21:32.961Z,18.69
2022-08-23T06:23:59.919Z,18.72
2022-08-23T06:26:31.461Z,18.71
2022-08-23T06:29:02.571Z,18.71
2022-08-23T06:31:56.317Z,18.73
2022-08-23T06:34:34.597Z,18.71
2022-08-23T06:37:14.775Z,18.71
2022-08-23T06:39:42.318Z,18.74
2022-08-23T06:42:38.378Z,18.75
2022-08-23T06:45:03.487Z,18.74
2022-08-23T06:47:31.968Z,18.78
2022-08-23T06:49:59.067Z,18.81
2022-08-23T06:52:27.666Z,18.84
2022-08-23T06:54:54.950Z,18.89
2022-08-23T06:57:21.761Z,18.95
2022-08-23T06:59:49.920Z,19.04
2022-08-23T07:02:17.142Z,19.14
2022-08-23T07:04:44.039Z,19.19
2022-08-23T07:07:12.251Z,19.25
2022-08-23T07:09:41.804Z,19.26
2022-08-23T07:12:09.091Z,19.31
2022-08-23T07:14:37.074Z,19.33
2022-08-23T07:17:04.697Z,19.29
2022-08-23T07:19:34.731Z,19.25
2022-08-23T07:22:04.048Z,19.21
2022-08-23T07:24:33.829Z,19.21
2022-08-23T07:27:06.198Z,19.24
2022-08-23T07:29:33.635Z,19.22
2022-08-23T07:32:00.406Z,19.29
2022-08-23T07:34:27.265Z,19.34
2022-08-23T07:36:54.669Z,19.41
2022-08-23T07:39:22.939Z,19.47
2022-08-23T07:41:52.681Z,19.52
2022-08-23T07:44:20.171Z,19.58
2022-08-23T07:46:50.800Z,19.59
2022-08-23T07:49:17.997Z,19.53
2022-08-23T07:51:50.473Z,19.53
2022-08-23T07:54:18.309Z,19.45
2022-08-23T07:56:45.884Z,19.42
2022-08-23T07:59:13.203Z,19.41
2022-08-23T08:01:43.451Z,19.46
2022-08-23T08:04:10.503Z,19.46
2022-08-23T08:07:04.874Z,19.47
2022-08-23T08:09:35.642Z,19.51
2022-08-23T08:12:02.657Z,19.52
2022-08-23T08:14:29.377Z,19.54
2022-08-23T08:16:58.579Z,19.62
2022-08-23T08:19:25.651Z,19.73
2022-08-23T08:21:52.431Z,19.73
2022-08-23T08:24:19.333Z,19.64
2022-08-23T08:26:47.036Z,19.52
2022-08-23T08:29:14.359Z,19.45
2022-08-23T08:31:44.031Z,19.43
2022-08-23T08:34:11.493Z,19.37
2022-08-23T08:36:40.211Z,19.29
2022-08-23T08:39:13.486Z,19.41
2022-08-23T08:42:04.451Z,19.52
2022-08-23T08:44:47.523Z,19.77
2022-08-23T08:47:18.135Z,19.93
2022-08-23T08:50:03.305Z,20.03
2022-08-23T08:52:36.771Z,20.05
2022-08-23T08:55:18.286Z,19.98
2022-08-23T08:57:47.772Z,19.91
2022-08-23T09:00:27.542Z,19.97
2022-08-23T09:02:56.292Z,20.07
2022-08-23T09:05:37.053Z,20.18
2022-08-23T09:08:04.139Z,20.27
2022-08-23T09:10:42.970Z,20.47
2022-08-23T09:13:23.457Z,20.68
2022-08-23T09:16:18.116Z,20.94
2022-08-23T09:18:46.319Z,21.05
2022-08-23T09:21:15.068Z,21.14
2022-08-23T09:23:45.265Z,21.22
2022-08-23T09:26:31.000Z,21.22
2022-08-23T09:29:06.560Z,21.23
2022-08-23T09:31:58.558Z,21.30
2022-08-23T09:34:31.224Z,21.32
2022-08-23T09:37:16.501Z,21.39
2022-08-23T09:39:47.522Z,21.48
2022-08-23T09:42:37.236Z,21.81
2022-08-23T09:45:35.552Z,22.07
2022-08-23T09:48:04.924Z,22.09
2022-08-23T09:50:40.152Z,22.16
2022-08-23T09:53:10.655Z,21.94
2022-08-23T09:55:42.329Z,21.79
2022-08-23T09:58:36.355Z,21.62
2022-08-23T10:01:18.419Z,21.56
2022-08-23T10:03:46.460Z,21.56
2022-08-23T10:06:31.136Z,21.48
2022-08-23T10:09:04.745Z,21.60
2022-08-23T10:11:45.028Z,21.87
2022-08-23T10:14:17.992Z,22.08
2022-08-23T10:17:03.111Z,22.51
2022-08-23T10:20:00.938Z,22.94
2022-08-23T10:22:29.017Z,23.18
2022-08-23T10:25:13.167Z,23.33
2022-08-23T10:28:42.719Z,23.53
2022-08-23T10:31:16.514Z,23.92
2022-08-23T10:34:07.812Z,23.84
2022-08-23T10:36:53.866Z,23.91
2022-08-23T10:39:29.758Z,23.90
2022-08-23T10:42:08.299Z,23.78
2022-08-23T10:44:48.152Z,23.75
2022-08-23T10:47:42.332Z,23.94
2022-08-23T10:50:20.513Z,24.20
2022-08-23T10:53:11.723Z,24.58
2022-08-23T10:55:55.266Z,24.83
2022-08-23T10:58:26.717Z,25.03
2022-08-23T11:00:59.047Z,25.31
2022-08-23T11:03:28.945Z,25.08
2022-08-23T11:06:32.191Z,25.15
2022-08-23T11:09:19.203Z,25.14
2022-08-23T11:12:14.178Z,24.73
2022-08-23T11:14:48.165Z,24.56
2022-08-23T11:17:27.966Z,25.07
2022-08-23T11:19:56.811Z,25.27
2022-08-23T11:22:33.366Z,25.18
2022-08-23T11:25:06.535Z,25.03
2022-08-23T11:27:37.832Z,24.70
2022-08-23T11:30:48.927Z,25.00
2022-08-23T11:33:27.449Z,25.91
2022-08-23T11:36:16.746Z,26.73
2022-08-23T11:38:50.136Z,27.35
2022-08-23T11:41:19.742Z,27.74
2022-08-23T11:44:11.013Z,28.24
2022-08-23T11:46:59.378Z,28.27
2022-08-23T11:49:29.643Z,28.38
2022-08-23T11:52:05.564Z,28.50
2022-08-23T11:55:01.517Z,28.62
2022-08-23T11:57:46.252Z,28.75
2022-08-23T12:00:28.685Z,29.17
2022-08-23T12:03:06.833Z,29.37
2022-08-23T12:06:02.789Z,29.77
2022-08-23T12:08:45.499Z,30.17
2022-08-23T12:11:14.100Z,29.99
2022-08-23T12:13:49.670Z,29.42
2022-08-23T12:16:17.692Z,29.19
2022-08-23T12:18:47.674Z,29.27
2022-08-23T12:21:24.216Z,29.44
2022-08-23T12:23:53.942Z,29.62
2022-08-23T12:26:40.268Z,30.39
2022-08-23T12:29:19.855Z,31.18
2022-08-23T12:32:12.181Z,31.57
2022-08-23T12:34:38.993Z,32.33
2022-08-23T12:37:31.874Z,33.15
2022-08-23T12:40:02.442Z,33.78
2022-08-23T12:42:36.757Z,33.87
2022-08-23T12:45:17.293Z,33.96
2022-08-23T12:47:56.186Z,32.89
2022-08-23T12:50:33.514Z,32.40
2022-08-23T12:53:33.980Z,32.30
2022-08-23T12:56:08.403Z,32.33
2022-08-23T12:58:39.141Z,32.79
2022-08-23T13:01:17.339Z,32.71
2022-08-23T13:03:49.834Z,32.75
2022-08-23T13:06:24.523Z,32.71
2022-08-23T13:09:04.102Z,33.23
2022-08-23T13:11:33.847Z,33.37
2022-08-23T13:14:30.987Z,32.35
2022-08-23T13:17:15.680Z,31.46
2022-08-23T13:19:42.645Z,32.02
2022-08-23T13:22:19.643Z,31.25
2022-08-23T13:27:56.133Z,31.97
2022-08-23T13:30:33.245Z,33.07
2022-08-23T13:33:09.074Z,34.33
2022-08-23T13:35:42.394Z,35.04
2022-08-23T13:38:21.379Z,34.25
2022-08-23T13:41:03.086Z,34.70
2022-08-23T13:43:36.436Z,34.50
2022-08-23T13:46:32.183Z,32.79
2022-08-23T13:49:23.720Z,32.40
2022-08-23T13:55:00.482Z,31.29
2022-08-23T13:57:30.103Z,32.42
2022-08-23T13:59:59.137Z,33.67
2022-08-23T14:02:26.356Z,35.08
2022-08-23T14:04:53.218Z,35.97
2022-08-23T14:07:20.408Z,36.17
2022-08-23T14:09:47.281Z,34.35
2022-08-23T14:12:21.762Z,35.11
2022-08-23T14:14:49.519Z,36.32
2022-08-23T14:17:17.332Z,35.28
2022-08-23T14:22:35.690Z,34.26
2022-08-23T14:25:02.630Z,33.84
2022-08-23T14:27:29.367Z,32.73
2022-08-23T14:29:56.359Z,31.66
2022-08-23T14:32:23.253Z,30.77
2022-08-23T14:34:50.457Z,30.36
2022-08-23T14:40:04.925Z,30.46
2022-08-23T14:42:31.914Z,31.55
2022-08-23T14:44:58.863Z,31.76
2022-08-23T14:47:26.968Z,32.26
2022-08-23T14:49:54.165Z,32.12
2022-08-23T14:52:21.770Z,31.82
2022-08-23T14:54:49.778Z,31.05
2022-08-23T14:57:17.119Z,30.77
2022-08-23T14:59:44.099Z,30.64
2022-08-23T15:02:13.756Z,30.73
2022-08-23T15:04:42.338Z,30.76
2022-08-23T15:07:18.930Z,30.96
2022-08-23T15:09:51.708Z,31.04
2022-08-23T15:15:12.373Z,30.38
2022-08-23T15:17:47.168Z,29.85
2022-08-23T15:20:14.272Z,29.57
2022-08-23T15:22:45.124Z,29.17
2022-08-23T15:25:22.048Z,28.66
2022-08-23T15:27:50.512Z,28.60
2022-08-23T15:30:17.430Z,28.51
2022-08-23T15:32:52.665Z,28.59
2022-08-23T15:35:38.628Z,28.89
2022-08-23T15:38:07.908Z,30.65
2022-08-23T15:40:34.826Z,33.28
2022-08-23T15:43:03.311Z,35.90
2022-08-23T15:45:32.123Z,38.98
2022-08-23T15:48:01.320Z,41.08
2022-08-23T15:50:32.919Z,42.71
2022-08-23T15:53:00.428Z,43.63
2022-08-23T15:55:31.357Z,40.40
2022-08-23T15:57:58.887Z,39.87
2022-08-23T16:00:27.112Z,41.29
2022-08-23T16:03:20.038Z,40.59
2022-08-23T16:05:44.289Z,40.73
2022-08-23T16:08:27.323Z,40.37
2022-08-23T16:10:55.209Z,42.25
2022-08-23T16:13:22.405Z,43.44
2022-08-23T16:15:49.763Z,44.15
2022-08-23T16:18:16.872Z,44.72
2022-08-23T16:20:44.376Z,45.81
2022-08-23T16:23:11.252Z,46.50
2022-08-23T16:25:38.642Z,44.01
2022-08-23T16:28:05.879Z,39.69
2022-08-23T16:30:32.809Z,37.54
2022-08-23T16:32:59.736Z,40.32
2022-08-23T16:35:26.616Z,42.28
2022-08-23T16:37:54.782Z,43.87
2022-08-23T16:40:22.137Z,45.20
2022-08-23T16:42:48.959Z,46.00
2022-08-23T16:45:16.210Z,46.22
2022-08-23T16:47:51.905Z,45.62
2022-08-23T16:50:18.843Z,44.54
2022-08-23T16:52:45.517Z,41.58
2022-08-23T16:55:12.941Z,40.02
2022-08-23T16:57:40.422Z,40.32
2022-08-23T17:00:11.007Z,41.03
2022-08-23T17:02:39.598Z,37.84
2022-08-23T17:05:09.781Z,35.72
2022-08-23T17:07:36.695Z,36.63
2022-08-23T17:10:04.824Z,39.09
2022-08-23T17:12:33.614Z,41.06
2022-08-23T17:15:00.425Z,42.75
2022-08-23T17:17:27.234Z,43.56
2022-08-23T17:19:54.383Z,44.16
2022-08-23T17:22:21.179Z,44.82
2022-08-23T17:24:47.949Z,43.90
2022-08-23T17:27:20.137Z,44.00
2022-08-23T17:29:46.825Z,44.29
2022-08-23T17:32:14.040Z,44.20
2022-08-23T17:34:40.872Z,43.92
2022-08-23T17:37:20.597Z,42.84
2022-08-23T17:39:49.078Z,40.39
2022-08-23T17:42:17.648Z,37.51
2022-08-23T17:44:45.446Z,35.70
2022-08-23T17:47:17.155Z,34.47
2022-08-23T17:49:46.221Z,33.23
2022-08-23T17:52:13.104Z,32.09
2022-08-23T17:54:41.223Z,31.32
2022-08-23T17:57:12.921Z,30.77
2022-08-23T17:59:39.961Z,30.50
2022-08-23T18:02:07.142Z,30.20
2022-08-23T18:04:34.235Z,29.86
2022-08-23T18:07:02.074Z,29.44
2022-08-23T18:09:29.062Z,29.01
2022-08-23T18:11:56.058Z,28.70
2022-08-23T18:14:23.513Z,28.50
2022-08-23T18:16:51.407Z,28.24
2022-08-23T18:19:18.316Z,27.88
2022-08-23T18:21:45.545Z,27.39
2022-08-23T18:24:12.771Z,27.02
2022-08-23T18:26:58.392Z,26.88
2022-08-23T18:29:25.448Z,26.56
2022-08-23T18:31:52.325Z,26.37
2022-08-23T18:34:20.051Z,26.19
2022-08-23T18:36:47.206Z,26.06
2022-08-23T18:39:15.015Z,26.03
2022-08-23T18:41:42.405Z,25.92
2022-08-23T18:44:10.338Z,25.81
2022-08-23T18:46:40.444Z,25.69
2022-08-23T18:49:09.051Z,25.61
2022-08-23T18:51:36.039Z,25.48
2022-08-23T18:54:03.779Z,25.40
2022-08-23T18:56:30.652Z,25.30
2022-08-23T18:58:57.419Z,25.24
2022-08-23T19:01:28.359Z,25.20
2022-08-23T19:03:58.440Z,25.08
2022-08-23T19:06:26.202Z,25.03
2022-08-23T19:08:53.115Z,24.96
2022-08-23T19:11:20.946Z,24.90
2022-08-23T19:13:48.724Z,24.87
2022-08-23T19:16:15.891Z,24.82
2022-08-23T19:18:45.413Z,24.80
2022-08-23T19:21:14.707Z,24.78
2022-08-23T19:23:42.236Z,24.71
2022-08-23T19:26:10.997Z,24.64
2022-08-23T19:28:37.972Z,24.55
2022-08-23T19:31:05.503Z,24.52
2022-08-23T19:33:32.653Z,24.46
2022-08-23T19:35:59.574Z,24.35
2022-08-23T19:38:27.910Z,24.30
2022-08-23T19:40:58.184Z,24.20
2022-08-23T19:43:26.400Z,24.08
2022-08-23T19:45:54.983Z,24.02
2022-08-23T19:48:22.635Z,23.98
2022-08-23T19:50:50.278Z,23.92
2022-08-23T19:53:17.221Z,23.81
2022-08-23T19:55:45.172Z,23.81
2022-08-23T19:58:13.723Z,23.77
2022-08-23T20:00:41.117Z,23.81
2022-08-23T20:03:07.989Z,23.83
2022-08-23T20:05:35.002Z,23.82
2022-08-23T20:08:01.842Z,23.78
2022-08-23T20:10:28.856Z,23.75
2022-08-23T20:12:55.794Z,23.74
2022-08-23T20:15:22.748Z,23.71
2022-08-23T20:17:50.170Z,23.61
2022-08-23T20:20:17.389Z,23.59
2022-08-23T20:23:12.044Z,23.57
2022-08-23T20:25:38.860Z,23.43
2022-08-23T20:28:08.407Z,23.39
2022-08-23T20:30:37.482Z,23.43
2022-08-23T20:33:05.133Z,23.36
2022-08-23T20:35:32.050Z,23.40
2022-08-23T20:37:59.029Z,23.38
2022-08-23T20:40:26.135Z,23.36
2022-08-23T20:42:53.012Z,23.31
2022-08-23T20:45:20.414Z,23.22
2022-08-23T20:47:47.388Z,23.23
2022-08-23T20:50:14.301Z,23.21
2022-08-23T20:52:41.059Z,23.20
2022-08-23T20:55:10.603Z,23.13
2022-08-23T20:57:38.471Z,23.05
2022-08-23T21:00:07.354Z,22.93
2022-08-23T21:02:34.415Z,22.84
2022-08-23T21:05:01.302Z,22.68
2022-08-23T21:07:31.551Z,22.52
2022-08-23T21:09:58.328Z,22.36
2022-08-23T21:12:25.198Z,22.29
2022-08-23T21:14:52.062Z,22.25
2022-08-23T21:17:18.842Z,22.23
2022-08-23T21:19:45.977Z,22.19
2022-08-23T21:22:12.826Z,22.13
2022-08-23T21:24:39.647Z,22.08
2022-08-23T21:27:09.746Z,21.98
2022-08-23T21:29:37.565Z,21.85
2022-08-23T21:32:04.989Z,21.77
2022-08-23T21:34:32.144Z,21.72
2022-08-23T21:36:58.950Z,21.67
2022-08-23T21:39:26.450Z,21.70
2022-08-23T21:41:55.887Z,21.68
2022-08-23T21:44:22.882Z,21.64
2022-08-23T21:46:49.589Z,21.62
2022-08-23T21:49:16.358Z,21.61
2022-08-23T21:51:44.641Z,21.54
2022-08-23T21:54:13.370Z,21.50
2022-08-23T21:56:40.653Z,21.45
2022-08-23T21:59:10.284Z,21.48
2022-08-23T22:01:38.762Z,21.49
2022-08-23T22:04:07.936Z,21.49
2022-08-23T22:06:36.530Z,21.47
2022-08-23T22:09:06.954Z,21.46
2022-08-23T22:11:40.948Z,21.48
2022-08-23T22:14:23.652Z,21.50
2022-08-23T22:16:54.974Z,21.47
2022-08-23T22:19:22.506Z,21.45
2022-08-23T22:21:49.587Z,21.46
2022-08-23T22:24:20.012Z,21.45
2022-08-23T22:26:48.923Z,21.41
2022-08-23T22:29:15.744Z,21.41
2022-08-23T22:31:43.195Z,21.37
2022-08-23T22:34:12.620Z,21.34
2022-08-23T22:36:39.744Z,21.25
2022-08-23T22:39:07.137Z,21.19
2022-08-23T22:41:34.546Z,21.15
2022-08-23T22:44:02.939Z,21.02
2022-08-23T22:46:32.326Z,20.90
2022-08-23T22:49:00.841Z,20.79
2022-08-23T22:52:27.516Z,20.72
2022-08-23T22:55:51.742Z,20.66
2022-08-23T23:02:11.151Z,20.57
2022-08-23T23:04:37.903Z,20.54
2022-08-23T23:07:04.845Z,20.52
2022-08-23T23:09:31.892Z,20.47
2022-08-23T23:11:58.779Z,20.42
2022-08-23T23:14:25.593Z,20.43
2022-08-23T23:16:53.603Z,20.43
2022-08-23T23:19:39.125Z,20.44
2022-08-23T23:22:08.736Z,20.46
2022-08-23T23:24:38.385Z,20.43
2022-08-23T23:27:05.989Z,20.45
2022-08-23T23:29:33.006Z,20.40
2022-08-23T23:31:59.859Z,20.32
2022-08-23T23:34:28.024Z,20.27
2022-08-23T23:36:59.268Z,20.27
2022-08-23T23:39:27.731Z,20.24
2022-08-23T23:41:55.098Z,20.17
2022-08-23T23:44:29.943Z,20.20
2022-08-23T23:47:00.768Z,20.24
2022-08-23T23:49:32.231Z,20.27
2022-08-23T23:52:00.005Z,20.22
2022-08-23T23:54:26.686Z,20.17
2022-08-23T23:56:53.488Z,20.09
2022-08-23T23:59:20.421Z,20.02
